Time;durP1;ratioP1;P1;durP2;ratioP2;P2;SDS_P1;SDS_P2;PMS_P1;PMS_P2;Temp;Humidity;BMP_temperature;BMP_pressure;BME280_temperature;BME280_humidity;BME280_pressure;Samples;Min_cycle;Max_cycle;Signal;HPM_P1;HPM_P2
2022/02/11 00:08:59;;;;;;;18.30;11.70;;;;;;;7.25;93.28;99137.48;105019;1271;75406;-72
2022/02/11 00:11:37;;;;;;;17.50;11.10;;;;;;;7.26;93.37;99141.33;104998;1272;70103;-72
2022/02/11 00:14:05;;;;;;;16.00;11.10;;;;;;;7.27;93.47;99144.67;104990;1271;73163;-72
2022/02/11 00:16:33;;;;;;;18.10;11.20;;;;;;;7.25;93.41;99141.05;105026;1271;61269;-72
2022/02/11 00:19:00;;;;;;;15.80;10.90;;;;;;;7.25;93.50;99145.09;105025;1271;61266;-73
2022/02/11 00:21:28;;;;;;;15.90;9.90;;;;;;;7.25;93.43;99144.75;104836;1273;75120;-73
2022/02/11 00:23:56;;;;;;;14.20;10.30;;;;;;;7.26;93.40;99146.67;105178;1272;69315;-72
2022/02/11 00:26:38;;;;;;;14.80;10.30;;;;;;;7.25;93.45;99150.02;105007;1271;73393;-73
2022/02/11 00:34:35;;;;;;;15.20;9.90;;;;;;;7.22;93.62;99147.01;105047;1271;75982;-72
2022/02/11 00:37:12;;;;;;;16.00;10.30;;;;;;;7.22;93.74;99143.71;104883;1273;69310;-71
2022/02/11 01:02:08;;;;;;;13.40;9.60;;;;;;;7.13;94.08;99145.38;104974;1271;73531;-74
2022/02/11 01:04:16;;;;;;;;;;;;;;;7.03;94.45;99145.86;105031;1271;69325;-73
2022/02/11 01:06:43;;;;;;;16.20;10.50;;;;;;;7.00;94.62;99146.73;105002;1271;73228;-73
2022/02/11 01:09:14;;;;;;;12.80;9.90;;;;;;;6.97;94.66;99147.74;104876;1271;61402;-74
2022/02/11 01:14:11;;;;;;;13.10;10.00;;;;;;;6.93;94.82;99144.11;104972;1271;75332;-73
2022/02/11 01:16:44;;;;;;;12.00;9.30;;;;;;;6.91;94.94;99145.60;105130;1271;69055;-74
2022/02/11 01:19:22;;;;;;;12.20;9.50;;;;;;;6.88;95.01;99143.98;104974;1271;73463;-72
2022/02/11 01:37:47;;;;;;;15.20;11.40;;;;;;;6.74;95.52;99155.61;105174;1271;61268;-73
2022/02/11 01:53:32;;;;;;;22.00;16.00;;;;;;;6.68;96.23;99141.41;105008;1271;75148;-72
2022/02/11 01:56:12;;;;;;;22.70;15.50;;;;;;;6.67;96.32;99138.85;104993;1271;69198;-72
2022/02/11 02:58:16;;;;;;;21.10;15.80;;;;;;;6.15;98.35;99098.25;104517;1279;61790;-72
2022/02/11 04:54:57;;;;;;;22.70;19.40;;;;;;;6.06;99.89;99101.84;104991;1271;73248;-73
2022/02/11 05:00:14;;;;;;;21.00;16.00;;;;;;;6.05;99.95;99096.05;105030;1271;61791;-72
2022/02/11 05:02:46;;;;;;;21.80;16.30;;;;;;;6.05;99.96;99090.76;105061;1271;75421;-73
2022/02/11 05:05:16;;;;;;;17.90;15.00;;;;;;;6.05;99.98;99089.53;105041;1271;69612;-72
2022/02/11 05:07:43;;;;;;;20.10;16.30;;;;;;;6.05;100.00;99088.29;105172;1271;73141;-72
2022/02/11 05:10:13;;;;;;;22.00;17.10;;;;;;;6.06;99.98;99088.83;105030;1271;61292;-74
2022/02/11 05:12:42;;;;;;;24.70;17.70;;;;;;;6.05;100.00;99088.48;105011;1271;61385;-72
2022/02/11 05:15:10;;;;;;;21.90;16.90;;;;;;;6.05;100.00;99085.86;105085;1274;72348;-73
2022/02/11 05:17:39;;;;;;;24.40;18.10;;;;;;;6.05;100.00;99084.80;105018;1271;69598;-74
2022/02/11 05:20:07;;;;;;;22.90;17.40;;;;;;;6.04;100.00;99082.04;105306;1271;73428;-78
2022/02/11 05:22:34;;;;;;;24.10;18.10;;;;;;;6.02;100.00;99079.27;105688;1271;61225;-77
2022/02/11 05:25:01;;;;;;;30.80;20.60;;;;;;;6.01;100.00;99077.73;105150;1271;61372;-77
2022/02/11 05:27:28;;;;;;;32.20;20.60;;;;;;;6.01;100.00;99074.94;105275;1271;75086;-78
2022/02/11 05:29:54;;;;;;;34.50;22.10;;;;;;;6.00;100.00;99075.52;105300;1270;70588;-86
2022/02/11 05:32:21;;;;;;;33.80;21.80;;;;;;;5.97;100.00;99071.74;105582;1271;71543;-80
2022/02/11 05:34:47;;;;;;;29.70;21.70;;;;;;;5.95;100.00;99068.84;105341;1271;61397;-79
2022/02/11 05:37:15;;;;;;;31.60;21.90;;;;;;;5.92;100.00;99064.72;105388;1271;61830;-77
2022/02/11 05:39:42;;;;;;;26.80;20.20;;;;;;;5.90;100.00;99064.64;105034;1271;75538;-76
2022/02/11 05:42:08;;;;;;;30.90;22.00;;;;;;;5.88;100.00;99059.81;105071;1271;69401;-78
2022/02/11 05:44:35;;;;;;;25.30;20.10;;;;;;;5.85;100.00;99061.15;105223;1271;61333;-84
2022/02/11 05:47:01;;;;;;;29.10;22.50;;;;;;;5.84;100.00;99067.41;105395;1271;61404;-72
2022/02/11 05:49:28;;;;;;;36.20;26.00;;;;;;;5.82;100.00;99068.54;104967;1274;61404;-72
2022/02/11 05:51:55;;;;;;;33.80;24.10;;;;;;;5.80;100.00;99069.19;104962;1271;75179;-72
2022/02/11 05:54:21;;;;;;;33.10;25.50;;;;;;;5.77;100.00;99068.78;105022;1271;61320;-72
2022/02/11 05:56:48;;;;;;;35.20;26.10;;;;;;;5.75;100.00;99069.42;105037;1271;72583;-72
2022/02/11 05:59:16;;;;;;;36.60;25.80;;;;;;;5.72;100.00;99071.97;104985;1271;61179;-72
2022/02/11 06:01:43;;;;;;;37.00;23.50;;;;;;;5.71;100.00;99072.23;105003;1273;61392;-73
2022/02/11 06:04:10;;;;;;;34.70;24.50;;;;;;;5.69;100.00;99070.92;104944;1271;76317;-72
2022/02/11 06:06:36;;;;;;;34.00;23.70;;;;;;;5.66;100.00;99070.17;105000;1273;61265;-72
2022/02/11 06:09:03;;;;;;;45.80;29.40;;;;;;;5.63;100.00;99071.71;105045;1271;73588;-72
2022/02/11 06:11:30;;;;;;;43.30;28.70;;;;;;;5.61;100.00;99070.03;105068;1271;61279;-71
2022/02/11 06:13:57;;;;;;;47.00;29.90;;;;;;;5.59;100.00;99072.08;104967;1270;61137;-72
2022/02/11 06:16:23;;;;;;;43.90;29.00;;;;;;;5.58;100.00;99071.40;105102;1271;73637;-72
2022/02/11 06:18:51;;;;;;;39.50;26.30;;;;;;;5.59;100.00;99075.96;104975;1271;69346;-72
2022/02/11 06:21:17;;;;;;;38.50;26.70;;;;;;;5.60;100.00;99075.73;105037;1271;74527;-72
2022/02/11 06:23:44;;;;;;;30.70;22.30;;;;;;;5.61;100.00;99075.69;105007;1271;61292;-73
2022/02/11 06:26:10;;;;;;;34.70;22.60;;;;;;;5.63;100.00;99079.30;104996;1271;61200;-74
2022/02/11 06:28:37;;;;;;;33.20;21.70;;;;;;;5.62;100.00;99078.83;105100;1271;75139;-71
2022/02/11 06:31:03;;;;;;;29.90;21.20;;;;;;;5.60;100.00;99079.98;105008;1271;61282;-72
2022/02/11 06:33:30;;;;;;;28.70;22.10;;;;;;;5.59;100.00;99079.84;105028;1271;61241;-72
2022/02/11 06:35:57;;;;;;;30.70;20.80;;;;;;;5.59;100.00;99076.65;105045;1271;61323;-72
2022/02/11 06:38:25;;;;;;;32.70;20.60;;;;;;;5.60;100.00;99075.35;105004;1271;61934;-73
2022/02/11 06:40:52;;;;;;;36.20;22.50;;;;;;;5.63;100.00;99069.77;105031;1271;75383;-73
2022/02/11 06:43:18;;;;;;;29.90;22.10;;;;;;;5.64;100.00;99069.01;104983;1271;69100;-74
2022/02/11 06:45:45;;;;;;;32.10;23.10;;;;;;;5.67;100.00;99072.77;105034;1271;71343;-73
2022/02/11 06:48:15;;;;;;;34.30;22.80;;;;;;;5.68;100.00;99072.35;104974;1271;61297;-73
2022/02/11 06:50:47;;;;;;;31.00;23.50;;;;;;;5.69;100.00;99074.80;105033;1271;61367;-73
2022/02/11 06:53:14;;;;;;;32.20;24.30;;;;;;;5.69;100.00;99074.08;104810;1271;75232;-75
2022/02/11 06:55:42;;;;;;;29.20;23.50;;;;;;;5.68;100.00;99070.94;105044;1271;69325;-72
2022/02/11 06:58:10;;;;;;;28.60;22.40;;;;;;;5.69;100.00;99062.42;105120;1271;73240;-73
2022/02/11 07:00:44;;;;;;;33.20;23.40;;;;;;;5.71;100.00;99057.92;105034;1271;61364;-74
2022/02/11 07:03:12;;;;;;;33.20;22.60;;;;;;;5.74;100.00;99059.02;105020;1271;61841;-73
2022/02/11 07:05:40;;;;;;;46.20;25.30;;;;;;;5.75;100.00;99056.73;105020;1271;76540;-72
2022/02/11 07:08:07;;;;;;;35.80;24.20;;;;;;;5.78;100.00;99056.75;104996;1271;69262;-72
2022/02/11 07:10:34;;;;;;;33.00;23.90;;;;;;;5.78;100.00;99057.42;105085;1271;74431;-73
2022/02/11 07:13:01;;;;;;;34.40;24.40;;;;;;;5.79;100.00;99049.29;105035;1271;61327;-73
2022/02/11 07:15:34;;;;;;;32.10;23.90;;;;;;;5.80;100.00;99052.04;105045;1271;61365;-75
2022/02/11 07:18:01;;;;;;;31.90;24.20;;;;;;;5.83;100.00;99051.05;105005;1271;75390;-73
2022/02/11 07:20:28;;;;;;;33.80;26.40;;;;;;;5.84;100.00;99045.52;104891;1271;69512;-71
2022/02/11 07:22:54;;;;;;;36.10;27.20;;;;;;;5.87;100.00;99043.82;105012;1271;74439;-72
2022/02/11 07:25:21;;;;;;;39.30;29.00;;;;;;;5.88;100.00;99048.35;105038;1271;61305;-72
2022/02/11 07:27:47;;;;;;;33.90;28.50;;;;;;;5.89;100.00;99050.60;105033;1271;61276;-72
2022/02/11 07:30:14;;;;;;;38.00;29.10;;;;;;;5.90;100.00;99048.59;105043;1271;61299;-72
2022/02/11 07:32:40;;;;;;;41.10;29.90;;;;;;;5.92;100.00;99044.27;104998;1271;61219;-72
2022/02/11 07:35:07;;;;;;;40.40;27.80;;;;;;;5.97;100.00;99038.98;105006;1271;74393;-72
2022/02/11 07:37:35;;;;;;;45.10;30.10;;;;;;;6.00;100.00;99043.77;104850;1271;61384;-72
2022/02/11 07:40:03;;;;;;;45.40;31.10;;;;;;;6.03;100.00;99042.73;105060;1271;61297;-72
2022/02/11 07:42:29;;;;;;;42.80;30.70;;;;;;;6.07;100.00;99039.73;105068;1271;76591;-73
2022/02/11 07:44:59;;;;;;;41.40;30.30;;;;;;;6.11;100.00;99035.48;105014;1271;69373;-72
2022/02/11 07:47:29;;;;;;;43.90;28.90;;;;;;;6.14;100.00;99037.41;105021;1271;73429;-72
2022/02/11 07:49:56;;;;;;;45.70;31.10;;;;;;;6.19;100.00;99041.46;104986;1271;61346;-72
2022/02/11 07:52:23;;;;;;;46.00;30.30;;;;;;;6.22;100.00;99039.20;104908;1271;61134;-72
2022/02/11 07:54:49;;;;;;;47.60;28.70;;;;;;;6.24;100.00;99038.19;104987;1271;74395;-72
2022/02/11 07:57:16;;;;;;;46.60;32.00;;;;;;;6.26;100.00;99039.15;105001;1271;70240;-73
2022/02/11 07:59:44;;;;;;;44.00;31.50;;;;;;;6.28;100.00;99032.69;105012;1271;72734;-72
2022/02/11 08:02:11;;;;;;;56.30;32.80;;;;;;;6.31;100.00;99033.28;105054;1271;61419;-72
2022/02/11 08:04:38;;;;;;;45.50;30.50;;;;;;;6.33;100.00;99029.12;105057;1271;61819;-72
2022/02/11 08:07:06;;;;;;;43.00;30.90;;;;;;;6.34;100.00;99023.03;105061;1271;76226;-73
2022/02/11 08:09:32;;;;;;;47.00;32.70;;;;;;;6.36;100.00;99023.67;105009;1271;67332;-72
2022/02/11 08:11:59;;;;;;;46.30;31.80;;;;;;;6.38;100.00;99023.73;104987;1271;74304;-73
2022/02/11 08:14:26;;;;;;;41.80;30.40;;;;;;;6.41;100.00;99019.39;104990;1271;61350;-72
2022/02/11 08:16:52;;;;;;;42.60;28.70;;;;;;;6.43;100.00;99027.20;105018;1271;61173;-72
2022/02/11 08:19:19;;;;;;;39.00;27.70;;;;;;;6.45;100.00;99033.99;104974;1271;76121;-73
2022/02/11 08:21:46;;;;;;;45.90;30.70;;;;;;;6.48;100.00;99035.95;105006;1271;67351;-74
2022/02/11 08:24:14;;;;;;;42.00;31.20;;;;;;;6.51;100.00;99030.34;105015;1271;72603;-74
2022/02/11 08:26:42;;;;;;;46.60;29.70;;;;;;;6.54;100.00;99034.23;105097;1271;61415;-72
2022/02/11 08:29:11;;;;;;;44.00;31.60;;;;;;;6.57;100.00;99036.90;105052;1271;61308;-73
2022/02/11 08:31:37;;;;;;;55.90;36.10;;;;;;;6.59;100.00;99039.28;105186;1271;75080;-73
2022/02/11 08:34:05;;;;;;;49.20;34.20;;;;;;;6.60;100.00;99039.94;105069;1271;61411;-76
2022/02/11 08:36:31;;;;;;;54.50;38.80;;;;;;;6.63;100.00;99031.35;105075;1271;74287;-74
2022/02/11 08:38:58;;;;;;;55.40;39.30;;;;;;;6.64;100.00;99029.36;104926;1271;61462;-73
2022/02/11 08:41:25;;;;;;;59.20;39.90;;;;;;;6.65;100.00;99030.69;104837;1271;61301;-73
2022/02/11 08:43:51;;;;;;;53.10;38.10;;;;;;;6.67;100.00;99031.98;105043;1271;61482;-73
2022/02/11 08:46:21;;;;;;;58.80;41.00;;;;;;;6.71;100.00;99031.45;105115;1271;61234;-73
2022/02/11 08:48:48;;;;;;;65.90;42.90;;;;;;;6.75;100.00;99034.77;105302;1271;72964;-72
2022/02/11 08:51:16;;;;;;;66.60;43.70;;;;;;;6.79;100.00;99035.63;105093;1271;61463;-74
2022/02/11 08:53:42;;;;;;;67.40;43.80;;;;;;;6.85;100.00;99038.90;105127;1271;61360;-72
2022/02/11 08:56:09;;;;;;;65.20;39.90;;;;;;;6.92;100.00;99038.48;105109;1271;75377;-72
2022/02/11 08:58:37;;;;;;;57.60;39.00;;;;;;;6.98;100.00;99033.23;104855;1273;69627;-71
2022/02/11 09:01:05;;;;;;;61.80;40.30;;;;;;;7.02;100.00;99035.17;104911;1273;74115;-73
2022/02/11 09:03:34;;;;;;;68.60;42.40;;;;;;;7.03;100.00;99033.66;105143;1271;61465;-72
2022/02/11 09:06:04;;;;;;;75.30;46.20;;;;;;;7.05;100.00;99029.36;105794;1271;61267;-72
2022/02/11 09:08:34;;;;;;;74.60;48.20;;;;;;;7.06;100.00;99031.09;106378;1271;75597;-73
2022/02/11 09:11:04;;;;;;;73.00;46.60;;;;;;;7.06;100.00;99031.79;106849;1271;69172;-73
2022/02/11 09:13:31;;;;;;;74.60;47.50;;;;;;;7.05;100.00;99029.36;106724;1271;73700;-74
2022/02/11 09:15:58;;;;;;;74.50;49.90;;;;;;;7.04;100.00;99027.11;105968;1271;61278;-74
2022/02/11 09:18:25;;;;;;;73.70;49.40;;;;;;;7.04;100.00;99033.09;104930;1273;61202;-74
2022/02/11 09:20:51;;;;;;;65.30;46.30;;;;;;;7.06;100.00;99032.48;105135;1271;75100;-74
2022/02/11 09:23:20;;;;;;;66.20;45.80;;;;;;;7.08;99.98;99031.69;104965;1273;68916;-72
2022/02/11 09:25:46;;;;;;;68.40;45.00;;;;;;;7.09;99.88;99031.09;105100;1271;74384;-74
2022/02/11 09:28:13;;;;;;;53.20;38.20;;;;;;;7.12;99.80;99026.91;105099;1271;61233;-73
2022/02/11 09:30:40;;;;;;;58.30;39.40;;;;;;;7.12;99.60;99028.09;105054;1271;61369;-73
2022/02/11 09:33:08;;;;;;;48.10;33.40;;;;;;;7.14;99.62;99029.08;105054;1271;75184;-77
2022/02/11 09:35:35;;;;;;;45.80;30.50;;;;;;;7.15;99.24;99031.66;105078;1271;68658;-76
2022/02/11 09:38:02;;;;;;;46.20;30.20;;;;;;;7.16;99.22;99029.49;105054;1271;72206;-75
2022/02/11 09:40:29;;;;;;;43.00;29.10;;;;;;;7.19;99.21;99024.22;105047;1271;61256;-75
2022/02/11 09:42:57;;;;;;;40.90;27.20;;;;;;;7.22;99.13;99017.31;105077;1271;61307;-74
2022/02/11 09:45:25;;;;;;;42.60;27.60;;;;;;;7.26;98.86;99018.20;105102;1271;76344;-74
2022/02/11 09:47:52;;;;;;;39.20;25.80;;;;;;;7.31;98.78;99020.40;105267;1271;69555;-73
2022/02/11 09:50:22;;;;;;;42.60;29.20;;;;;;;7.37;98.49;99018.50;104956;1272;73109;-74
2022/02/11 09:52:51;;;;;;;34.40;23.80;;;;;;;7.47;98.27;99022.90;105221;1271;61330;-75
2022/02/11 09:55:35;;;;;;;30.80;20.30;;;;;;;7.58;97.77;99026.75;105124;1271;62256;-74
2022/02/11 09:58:24;;;;;;;24.50;17.50;;;;;;;7.66;97.57;99034.93;104920;1271;76601;-75
2022/02/11 10:00:52;;;;;;;19.10;14.10;;;;;;;7.74;97.07;99027.27;105106;1271;69433;-75
2022/02/11 10:03:20;;;;;;;20.50;13.90;;;;;;;7.80;96.90;99028.02;105138;1271;74223;-75
2022/02/11 10:06:05;;;;;;;18.60;13.90;;;;;;;7.83;96.82;99022.50;105179;1270;61424;-75
2022/02/11 10:08:38;;;;;;;17.00;11.90;;;;;;;7.88;96.58;99019.58;105070;1271;61358;-75
2022/02/11 10:11:08;;;;;;;14.10;11.70;;;;;;;7.90;96.09;99020.87;105267;1271;75615;-75
2022/02/11 10:13:39;;;;;;;18.00;12.30;;;;;;;7.90;95.38;99020.91;105105;1271;70553;-75
2022/02/11 10:16:11;;;;;;;12.90;9.80;;;;;;;7.89;94.96;99012.84;105117;1271;73688;-76
2022/02/11 10:18:43;;;;;;;9.90;8.00;;;;;;;7.87;94.11;99011.00;105172;1271;61216;-75
2022/02/11 10:21:12;;;;;;;14.10;10.10;;;;;;;7.83;93.21;99010.34;105084;1271;61924;-75
2022/02/11 10:23:41;;;;;;;12.00;8.80;;;;;;;7.81;93.66;99014.33;105102;1271;76364;-74
2022/02/11 10:26:10;;;;;;;16.40;11.00;;;;;;;7.80;93.69;99011.02;105070;1271;69183;-74
2022/02/11 10:28:57;;;;;;;13.00;8.10;;;;;;;7.79;92.60;99005.40;105074;1271;73390;-74
2022/02/11 10:31:35;;;;;;;11.00;7.40;;;;;;;7.76;92.50;99002.77;105094;1271;61290;-74
2022/02/11 10:34:06;;;;;;;6.80;5.80;;;;;;;7.76;92.30;98999.59;105076;1271;61293;-75
2022/02/11 10:36:36;;;;;;;7.80;5.80;;;;;;;7.77;91.44;98992.30;105074;1271;74298;-74
2022/02/11 10:39:12;;;;;;;7.00;5.30;;;;;;;7.79;91.64;98984.39;105255;1271;67493;-76
2022/02/11 10:41:57;;;;;;;8.80;6.40;;;;;;;7.83;91.01;98981.85;105007;1271;73373;-74
2022/02/11 10:44:30;;;;;;;6.30;5.00;;;;;;;7.90;91.00;98983.58;105057;1271;61373;-73
2022/02/11 10:47:07;;;;;;;10.50;7.80;;;;;;;8.01;91.15;98981.73;105035;1271;61247;-74
2022/02/11 10:49:42;;;;;;;10.30;7.10;;;;;;;8.19;91.00;98975.94;105047;1271;76342;-75
2022/02/11 10:52:18;;;;;;;9.20;6.70;;;;;;;8.43;90.74;98976.98;105200;1271;69286;-74
2022/02/11 10:54:49;;;;;;;10.20;7.30;;;;;;;8.70;89.98;98979.33;105154;1271;74140;-75
2022/02/11 10:57:18;;;;;;;8.00;6.40;;;;;;;8.91;90.04;98985.86;104933;1271;61293;-75
2022/02/11 10:59:47;;;;;;;9.30;7.20;;;;;;;9.09;88.93;98978.77;105076;1271;61182;-75
2022/02/11 11:02:19;;;;;;;7.10;6.20;;;;;;;9.18;88.29;98980.48;105013;1271;76053;-76
2022/02/11 11:04:48;;;;;;;14.10;6.60;;;;;;;9.26;88.45;98980.22;105046;1271;70850;-74
2022/02/11 11:07:21;;;;;;;6.90;6.20;;;;;;;9.31;87.75;98975.64;105055;1270;74360;-74
2022/02/11 11:09:49;;;;;;;6.40;5.80;;;;;;;9.38;87.08;98969.91;105078;1271;61268;-76
2022/02/11 11:12:18;;;;;;;6.90;5.80;;;;;;;9.39;86.22;98968.89;104987;1271;61253;-75
2022/02/11 11:14:50;;;;;;;5.90;5.20;;;;;;;9.47;86.21;98967.73;105020;1271;76172;-75
2022/02/11 11:17:20;;;;;;;6.40;5.80;;;;;;;9.59;85.88;98965.39;105167;1271;68734;-75
2022/02/11 11:19:49;;;;;;;8.20;5.50;;;;;;;9.63;83.99;98969.38;105053;1271;72324;-74
2022/02/11 11:22:23;;;;;;;6.70;5.20;;;;;;;9.59;83.44;98963.75;105135;1271;61391;-75
2022/02/11 11:24:52;;;;;;;6.20;5.20;;;;;;;9.58;84.06;98957.48;105034;1271;61794;-75
2022/02/11 11:27:57;;;;;;;10.60;6.10;;;;;;;9.59;83.32;98954.36;105063;1271;76490;-74
2022/02/11 11:30:33;;;;;;;7.20;6.20;;;;;;;9.65;83.09;98958.94;105027;1271;69154;-76
2022/02/11 11:33:10;;;;;;;11.80;9.00;;;;;;;9.75;83.03;98958.85;105010;1271;73312;-75
2022/02/11 11:35:46;;;;;;;12.70;8.40;;;;;;;9.90;82.92;98953.08;105037;1271;61258;-75
2022/02/11 11:38:21;;;;;;;21.30;15.60;;;;;;;9.96;81.14;98959.83;104970;1271;61412;-76
2022/02/11 11:40:53;;;;;;;12.50;9.50;;;;;;;9.86;81.15;98961.84;105080;1271;75106;-74
2022/02/11 11:43:40;;;;;;;9.40;8.00;;;;;;;9.72;79.27;98971.48;105086;1271;70554;-75
2022/02/11 11:46:16;;;;;;;16.40;13.00;;;;;;;9.52;80.30;98967.77;105044;1271;74512;-75
2022/02/11 11:48:51;;;;;;;19.60;14.70;;;;;;;9.33;80.61;98970.00;104952;1271;195051;-74
2022/02/11 11:51:20;;;;;;;21.90;13.80;;;;;;;9.09;81.44;98974.50;105066;1271;61407;-75
2022/02/11 11:53:47;;;;;;;7.10;5.90;;;;;;;8.94;81.83;98984.61;105110;1271;75543;-75
2022/02/11 11:56:36;;;;;;;8.30;6.10;;;;;;;8.83;81.89;98983.86;105085;1271;68544;-77
2022/02/11 11:59:14;;;;;;;13.00;7.10;;;;;;;8.80;82.32;98977.35;105051;1271;71673;-77
2022/02/11 12:01:51;;;;;;;10.70;6.90;;;;;;;8.79;82.16;98979.48;105072;1271;61166;-75
2022/02/11 12:04:24;;;;;;;12.00;7.50;;;;;;;8.75;82.45;98982.61;105082;1271;61287;-75
2022/02/11 12:06:52;;;;;;;11.60;6.30;;;;;;;8.68;82.86;98985.84;105096;1271;76656;-75
2022/02/11 12:09:20;;;;;;;11.50;5.70;;;;;;;8.59;83.21;98991.53;105274;1271;70254;-75
2022/02/11 12:11:47;;;;;;;10.50;7.50;;;;;;;8.50;82.77;98986.20;105074;1271;73414;-74
2022/02/11 12:14:15;;;;;;;9.20;6.30;;;;;;;8.45;83.15;98990.92;105092;1271;61328;-75
2022/02/11 12:16:42;;;;;;;11.70;6.90;;;;;;;8.39;83.47;98991.44;105031;1271;61289;-74
2022/02/11 12:19:08;;;;;;;14.50;7.80;;;;;;;8.36;84.10;98992.48;105051;1271;75093;-75
2022/02/11 12:21:35;;;;;;;12.10;7.30;;;;;;;8.35;84.15;98993.73;105087;1271;69567;-76
2022/02/11 12:29:32;;;;;;;8.80;5.20;;;;;;;8.31;85.45;99002.64;105093;1271;62068;-76
2022/02/11 12:32:01;;;;;;;7.30;5.30;;;;;;;8.23;85.93;99008.09;105078;1271;75120;-76
2022/02/11 12:34:27;;;;;;;6.80;5.00;;;;;;;8.09;86.88;99018.09;105082;1271;69483;-76
2022/02/11 12:37:00;;;;;;;6.70;5.00;;;;;;;7.94;87.61;99025.12;105031;1271;73165;-77
2022/02/11 12:39:27;;;;;;;8.00;4.60;;;;;;;7.80;88.88;99020.94;105132;1271;61220;-77
2022/02/11 12:41:56;;;;;;;7.20;5.80;;;;;;;7.70;89.55;99026.25;105048;1271;62138;-76
2022/02/11 12:44:28;;;;;;;8.40;5.30;;;;;;;7.65;90.35;99027.97;105115;1271;75414;-76
2022/02/11 12:46:59;;;;;;;7.20;6.00;;;;;;;7.59;90.88;99031.80;105088;1271;67637;-77
2022/02/11 12:49:26;;;;;;;7.50;6.40;;;;;;;7.53;91.54;99027.19;105083;1271;72219;-75
2022/02/11 12:51:57;;;;;;;8.40;6.60;;;;;;;7.46;92.15;99028.09;105066;1271;61259;-75
2022/02/11 12:54:24;;;;;;;6.90;5.70;;;;;;;7.41;92.13;99034.00;105076;1271;61328;-76
2022/02/11 12:57:04;;;;;;;9.60;6.60;;;;;;;7.36;92.56;99038.34;105076;1271;75379;-75
2022/02/11 12:59:32;;;;;;;8.60;6.60;;;;;;;7.28;92.99;99043.86;104997;1271;69062;-74
2022/02/11 13:01:58;;;;;;;8.50;6.60;;;;;;;7.22;93.31;99051.62;105221;1271;74261;-76
2022/02/11 13:04:27;;;;;;;8.10;6.40;;;;;;;7.17;93.75;99061.77;105115;1271;61295;-74
2022/02/11 13:06:55;;;;;;;8.50;6.80;;;;;;;7.12;94.60;99061.84;105245;1271;61277;-74
2022/02/11 13:09:22;;;;;;;8.70;6.10;;;;;;;7.05;95.21;99075.45;105015;1271;74321;-75
2022/02/11 13:11:55;;;;;;;6.60;5.90;;;;;;;6.98;95.93;99076.33;105058;1271;67315;-78
2022/02/11 13:14:21;;;;;;;7.20;5.20;;;;;;;6.89;96.49;99083.55;104860;1271;73463;-76
2022/02/11 13:16:48;;;;;;;7.00;5.70;;;;;;;6.75;96.93;99084.94;105285;1271;61278;-77
2022/02/11 13:19:17;;;;;;;6.80;5.50;;;;;;;6.60;97.47;99092.39;105286;1271;62047;-78
2022/02/11 13:21:44;;;;;;;7.00;4.90;;;;;;;6.44;98.55;99098.63;105431;1271;76416;-76
2022/02/11 13:24:11;;;;;;;9.60;5.70;;;;;;;6.28;99.04;99103.43;105109;1271;68775;-76
2022/02/11 13:26:38;;;;;;;8.40;6.50;;;;;;;6.17;99.87;99110.69;105068;1271;74449;-76
2022/02/11 13:29:13;;;;;;;9.10;8.20;;;;;;;6.06;100.00;99119.64;105087;1271;61335;-76
2022/02/11 13:31:50;;;;;;;8.70;6.90;;;;;;;5.94;100.00;99129.02;105077;1271;61289;-75
2022/02/11 13:34:17;;;;;;;9.00;7.60;;;;;;;5.81;100.00;99138.77;105168;1270;74338;-75
2022/02/11 13:36:48;;;;;;;10.50;8.50;;;;;;;5.65;100.00;99150.95;104968;1270;70223;-73
2022/02/11 13:39:28;;;;;;;8.90;8.00;;;;;;;5.49;100.00;99162.54;105039;1270;73433;-74
2022/02/11 13:41:55;;;;;;;9.50;8.60;;;;;;;5.34;100.00;99173.24;105174;1270;61249;-74
2022/02/11 13:44:22;;;;;;;7.50;6.70;;;;;;;5.17;100.00;99195.66;105183;1270;61810;-74
2022/02/11 13:46:53;;;;;;;10.60;9.40;;;;;;;4.89;100.00;99209.47;105152;1270;61664;-72
2022/02/11 13:49:21;;;;;;;7.50;6.80;;;;;;;4.64;100.00;99231.22;105205;1270;70596;-72
2022/02/11 13:55:07;;;;;;;7.30;6.70;;;;;;;4.12;100.00;99261.48;105138;1270;61194;-73
2022/02/11 13:57:35;;;;;;;7.80;7.10;;;;;;;3.96;100.00;99265.77;104936;1270;62142;-73
2022/02/11 14:00:25;;;;;;;7.30;6.70;;;;;;;3.82;100.00;99277.15;105107;1270;76276;-72
2022/02/11 14:02:52;;;;;;;7.00;6.40;;;;;;;3.69;100.00;99284.09;104773;1270;69558;-72
2022/02/11 14:05:19;;;;;;;8.60;7.90;;;;;;;3.61;100.00;99290.71;104911;1271;71619;-73
2022/02/11 14:07:52;;;;;;;7.50;6.90;;;;;;;3.56;100.00;99298.44;105167;1270;61291;-73
2022/02/11 14:10:19;;;;;;;5.80;5.20;;;;;;;3.52;100.00;99306.61;105174;1270;61228;-73
2022/02/11 14:12:46;;;;;;;6.70;6.10;;;;;;;3.46;100.00;99314.22;105149;1270;76360;-73
2022/02/11 14:15:13;;;;;;;8.50;7.50;;;;;;;3.39;100.00;99331.47;105175;1270;70496;-75
2022/02/11 14:17:40;;;;;;;10.40;9.50;;;;;;;3.34;100.00;99332.73;105173;1270;73264;-73
2022/02/11 14:20:07;;;;;;;9.40;8.60;;;;;;;3.26;100.00;99345.39;105167;1270;61361;-74
2022/02/11 14:22:34;;;;;;;9.10;8.30;;;;;;;3.22;100.00;99360.27;105185;1270;61833;-74
2022/02/11 14:25:01;;;;;;;10.10;9.20;;;;;;;3.21;100.00;99373.69;105172;1270;75355;-74
2022/02/11 14:27:28;;;;;;;6.90;6.40;;;;;;;3.18;100.00;99377.97;105148;1270;69443;-73
2022/02/11 14:29:56;;;;;;;7.40;6.70;;;;;;;3.13;100.00;99389.39;105216;1270;73198;-73
2022/02/11 14:32:23;;;;;;;8.30;6.50;;;;;;;3.06;100.00;99402.39;105153;1270;61224;-73
2022/02/11 14:34:49;;;;;;;5.30;4.60;;;;;;;2.99;100.00;99404.88;105192;1270;61289;-75
2022/02/11 14:37:17;;;;;;;6.00;5.20;;;;;;;2.93;100.00;99411.02;105186;1270;76426;-74
2022/02/11 14:39:44;;;;;;;5.90;5.30;;;;;;;2.86;100.00;99415.07;105203;1270;69314;-74
2022/02/11 14:42:11;;;;;;;7.30;4.60;;;;;;;2.83;100.00;99423.93;105172;1270;73374;-74
2022/02/11 14:44:37;;;;;;;5.30;4.70;;;;;;;2.80;100.00;99422.63;105168;1270;61588;-74
2022/02/11 14:47:07;;;;;;;5.00;4.20;;;;;;;2.75;100.00;99427.69;105229;1270;61268;-75
2022/02/11 14:49:34;;;;;;;5.10;4.20;;;;;;;2.68;100.00;99432.97;105339;1270;76188;-73
2022/02/11 14:52:03;;;;;;;5.10;4.60;;;;;;;2.66;100.00;99441.61;105455;1270;61246;-73
2022/02/11 14:54:32;;;;;;;6.60;5.10;;;;;;;2.66;100.00;99451.45;105288;1270;74460;-74
2022/02/11 14:56:59;;;;;;;6.10;5.00;;;;;;;2.65;100.00;99459.17;105747;1270;61265;-74
2022/02/11 14:59:27;;;;;;;4.90;4.50;;;;;;;2.65;100.00;99468.11;105828;1270;61252;-72
2022/02/11 15:01:55;;;;;;;5.80;4.30;;;;;;;2.63;100.00;99474.32;106826;1270;73659;-73
2022/02/11 15:04:24;;;;;;;4.50;4.00;;;;;;;2.61;100.00;99486.11;107114;1270;69409;-75
2022/02/11 15:06:51;;;;;;;5.70;4.80;;;;;;;2.61;100.00;99494.38;107640;1270;73256;-73
2022/02/11 15:09:20;;;;;;;5.00;4.30;;;;;;;2.58;100.00;99509.20;107532;1270;60054;-74
2022/02/11 15:11:47;;;;;;;4.50;4.00;;;;;;;2.56;100.00;99515.36;108045;1269;61171;-75
2022/02/11 15:14:14;;;;;;;5.80;5.00;;;;;;;2.55;100.00;99530.31;106053;1270;75307;-74
2022/02/11 15:16:41;;;;;;;6.30;5.20;;;;;;;2.56;100.00;99536.95;105155;1270;70235;-73
2022/02/11 15:19:07;;;;;;;7.10;6.10;;;;;;;2.53;100.00;99542.64;104943;1270;71412;-74
2022/02/11 15:21:35;;;;;;;6.20;5.60;;;;;;;2.51;100.00;99547.60;105212;1270;61286;-74
2022/02/11 15:24:02;;;;;;;6.70;6.00;;;;;;;2.48;100.00;99551.55;105028;1270;61779;-75
2022/02/11 15:26:29;;;;;;;6.20;5.40;;;;;;;2.46;100.00;99555.46;105121;1270;76625;-75
2022/02/11 15:28:56;;;;;;;6.20;5.60;;;;;;;2.43;100.00;99559.38;104894;1270;69396;-73
2022/02/11 15:31:23;;;;;;;9.00;7.50;;;;;;;2.43;100.00;99561.84;105166;1270;74434;-74
2022/02/11 15:33:51;;;;;;;8.60;7.30;;;;;;;2.44;100.00;99567.44;105142;1270;61298;-74
2022/02/11 15:36:18;;;;;;;8.10;7.30;;;;;;;2.43;100.00;99571.83;105199;1270;61906;-74
2022/02/11 15:38:45;;;;;;;7.30;6.30;;;;;;;2.42;100.00;99582.02;104972;1270;75276;-74
2022/02/11 15:41:12;;;;;;;6.30;5.70;;;;;;;2.42;100.00;99584.13;105153;1270;69809;-72